sensor_id;sensor_type;location;lat;lon;timestamp;temperature;humidity
63960;DHT22;50136;51.374;0.096;2024-01-27T00:09:08;2.10;99.90
63960;DHT22;50136;51.374;0.096;2024-01-27T00:19:12;1.90;99.90
63960;DHT22;50136;51.374;0.096;2024-01-27T00:29:14;1.90;99.90
63960;DHT22;50136;51.374;0.096;2024-01-27T00:39:18;1.70;99.90
63960;DHT22;50136;51.374;0.096;2024-01-27T00:49:20;1.80;99.90
63960;DHT22;50136;51.374;0.096;2024-01-27T00:59:24;1.80;99.90
63960;DHT22;50136;51.374;0.096;2024-01-27T01:09:26;1.80;99.90
63960;DHT22;50136;51.374;0.096;2024-01-27T01:19:29;1.80;99.90
63960;DHT22;50136;51.374;0.096;2024-01-27T01:29:31;1.80;99.90
63960;DHT22;50136;51.374;0.096;2024-01-27T01:39:35;1.60;99.90
63960;DHT22;50136;51.374;0.096;2024-01-27T01:49:37;1.50;99.90
63960;DHT22;50136;51.374;0.096;2024-01-27T01:59:41;1.40;99.90
63960;DHT22;50136;51.374;0.096;2024-01-27T02:09:43;1.50;99.90
63960;DHT22;50136;51.374;0.096;2024-01-27T02:19:46;1.50;99.90
63960;DHT22;50136;51.374;0.096;2024-01-27T02:29:50;1.50;99.90
63960;DHT22;50136;51.374;0.096;2024-01-27T02:39:52;1.50;99.90
63960;DHT22;50136;51.374;0.096;2024-01-27T02:49:55;1.30;99.90
63960;DHT22;50136;51.374;0.096;2024-01-27T02:59:58;1.40;99.90
63960;DHT22;50136;51.374;0.096;2024-01-27T03:10:01;1.50;99.90
63960;DHT22;50136;51.374;0.096;2024-01-27T03:20:04;1.50;99.90
63960;DHT22;50136;51.374;0.096;2024-01-27T03:30:08;1.60;99.90
63960;DHT22;50136;51.374;0.096;2024-01-27T03:40:11;1.40;99.90
63960;DHT22;50136;51.374;0.096;2024-01-27T03:50:15;1.40;99.90
63960;DHT22;50136;51.374;0.096;2024-01-27T04:00:17;1.40;99.90
63960;DHT22;50136;51.374;0.096;2024-01-27T04:10:21;1.40;99.90
63960;DHT22;50136;51.374;0.096;2024-01-27T04:20:24;1.50;99.90
63960;DHT22;50136;51.374;0.096;2024-01-27T04:30:27;1.60;99.90
63960;DHT22;50136;51.374;0.096;2024-01-27T04:40:29;1.50;99.90
63960;DHT22;50136;51.374;0.096;2024-01-27T04:50:32;1.40;99.90
63960;DHT22;50136;51.374;0.096;2024-01-27T05:00:34;1.20;99.90
63960;DHT22;50136;51.374;0.096;2024-01-27T05:10:38;1.10;99.90
63960;DHT22;50136;51.374;0.096;2024-01-27T05:20:40;1.00;99.90
63960;DHT22;50136;51.374;0.096;2024-01-27T05:30:43;1.10;99.90
63960;DHT22;50136;51.374;0.096;2024-01-27T05:40:46;1.10;99.90
63960;DHT22;50136;51.374;0.096;2024-01-27T05:50:56;1.00;99.90
63960;DHT22;50136;51.374;0.096;2024-01-27T06:00:59;1.00;99.90
63960;DHT22;50136;51.374;0.096;2024-01-27T06:11:02;1.10;99.90
63960;DHT22;50136;51.374;0.096;2024-01-27T06:21:08;1.10;99.90
63960;DHT22;50136;51.374;0.096;2024-01-27T06:31:11;1.10;99.90
63960;DHT22;50136;51.374;0.096;2024-01-27T06:41:13;1.10;99.90
63960;DHT22;50136;51.374;0.096;2024-01-27T06:51:17;1.10;99.90
63960;DHT22;50136;51.374;0.096;2024-01-27T07:01:19;1.10;99.90
63960;DHT22;50136;51.374;0.096;2024-01-27T07:11:22;1.10;99.90
63960;DHT22;50136;51.374;0.096;2024-01-27T07:21:24;1.00;99.90
63960;DHT22;50136;51.374;0.096;2024-01-27T07:31:28;1.10;99.90
63960;DHT22;50136;51.374;0.096;2024-01-27T07:41:30;1.10;99.90
63960;DHT22;50136;51.374;0.096;2024-01-27T07:51:34;1.10;99.90
63960;DHT22;50136;51.374;0.096;2024-01-27T08:01:36;1.20;99.90
63960;DHT22;50136;51.374;0.096;2024-01-27T08:11:40;1.30;99.90
63960;DHT22;50136;51.374;0.096;2024-01-27T08:21:42;1.40;99.90
63960;DHT22;50136;51.374;0.096;2024-01-27T08:31:45;1.60;99.90
63960;DHT22;50136;51.374;0.096;2024-01-27T08:41:47;2.00;99.90
63960;DHT22;50136;51.374;0.096;2024-01-27T08:51:51;2.20;99.90
63960;DHT22;50136;51.374;0.096;2024-01-27T09:01:53;2.60;99.90
63960;DHT22;50136;51.374;0.096;2024-01-27T09:11:56;3.10;99.90
63960;DHT22;50136;51.374;0.096;2024-01-27T09:21:58;3.70;99.90
63960;DHT22;50136;51.374;0.096;2024-01-27T09:32:02;4.00;99.90
63960;DHT22;50136;51.374;0.096;2024-01-27T09:42:07;4.20;99.90
63960;DHT22;50136;51.374;0.096;2024-01-27T09:52:10;4.50;99.90
63960;DHT22;50136;51.374;0.096;2024-01-27T10:02:14;4.80;99.90
63960;DHT22;50136;51.374;0.096;2024-01-27T10:12:21;5.20;99.90
63960;DHT22;50136;51.374;0.096;2024-01-27T10:22:26;5.70;99.90
63960;DHT22;50136;51.374;0.096;2024-01-27T10:32:29;6.90;99.90
63960;DHT22;50136;51.374;0.096;2024-01-27T10:42:31;7.50;99.90
63960;DHT22;50136;51.374;0.096;2024-01-27T10:52:39;8.00;99.90
63960;DHT22;50136;51.374;0.096;2024-01-27T11:02:42;8.70;99.90
63960;DHT22;50136;51.374;0.096;2024-01-27T11:12:47;8.80;99.90
63960;DHT22;50136;51.374;0.096;2024-01-27T11:22:50;8.80;99.90
63960;DHT22;50136;51.374;0.096;2024-01-27T11:32:54;8.90;99.90
63960;DHT22;50136;51.374;0.096;2024-01-27T11:42:58;8.90;99.90
63960;DHT22;50136;51.374;0.096;2024-01-27T11:53:02;8.60;99.90
63960;DHT22;50136;51.374;0.096;2024-01-27T12:03:05;8.70;99.90
63960;DHT22;50136;51.374;0.096;2024-01-27T12:13:08;8.80;99.90
63960;DHT22;50136;51.374;0.096;2024-01-27T12:23:10;9.10;99.90
63960;DHT22;50136;51.374;0.096;2024-01-27T12:33:14;9.20;99.90
63960;DHT22;50136;51.374;0.096;2024-01-27T12:43:16;9.20;99.90
63960;DHT22;50136;51.374;0.096;2024-01-27T12:53:19;9.00;99.90
63960;DHT22;50136;51.374;0.096;2024-01-27T13:03:22;8.70;99.90
63960;DHT22;50136;51.374;0.096;2024-01-27T13:13:25;8.70;99.90
63960;DHT22;50136;51.374;0.096;2024-01-27T13:23:27;8.80;99.90
63960;DHT22;50136;51.374;0.096;2024-01-27T13:33:31;8.90;99.90
63960;DHT22;50136;51.374;0.096;2024-01-27T13:43:33;8.70;99.90
63960;DHT22;50136;51.374;0.096;2024-01-27T13:53:36;8.70;99.90
63960;DHT22;50136;51.374;0.096;2024-01-27T14:03:48;8.80;99.90
63960;DHT22;50136;51.374;0.096;2024-01-27T14:13:51;8.60;99.90
63960;DHT22;50136;51.374;0.096;2024-01-27T14:23:53;8.60;99.90
63960;DHT22;50136;51.374;0.096;2024-01-27T14:33:57;8.50;99.90
63960;DHT22;50136;51.374;0.096;2024-01-27T14:43:59;8.60;99.90
63960;DHT22;50136;51.374;0.096;2024-01-27T14:54:03;8.50;99.90
63960;DHT22;50136;51.374;0.096;2024-01-27T15:04:05;8.40;99.90
63960;DHT22;50136;51.374;0.096;2024-01-27T15:14:09;8.40;99.90
63960;DHT22;50136;51.374;0.096;2024-01-27T15:24:11;8.40;99.90
63960;DHT22;50136;51.374;0.096;2024-01-27T15:34:15;8.30;99.90
63960;DHT22;50136;51.374;0.096;2024-01-27T15:44:17;8.20;99.90
63960;DHT22;50136;51.374;0.096;2024-01-27T15:54:21;8.00;99.90
63960;DHT22;50136;51.374;0.096;2024-01-27T16:04:23;7.90;99.90
63960;DHT22;50136;51.374;0.096;2024-01-27T16:14:26;7.80;99.90
63960;DHT22;50136;51.374;0.096;2024-01-27T16:24:28;7.70;99.90
63960;DHT22;50136;51.374;0.096;2024-01-27T16:34:32;7.40;99.90
63960;DHT22;50136;51.374;0.096;2024-01-27T16:44:34;7.20;99.90
63960;DHT22;50136;51.374;0.096;2024-01-27T16:54:37;7.00;99.90
63960;DHT22;50136;51.374;0.096;2024-01-27T17:04:40;6.90;99.90
63960;DHT22;50136;51.374;0.096;2024-01-27T17:14:43;6.70;99.90
63960;DHT22;50136;51.374;0.096;2024-01-27T17:24:45;6.60;99.90
63960;DHT22;50136;51.374;0.096;2024-01-27T17:34:49;6.50;99.90
63960;DHT22;50136;51.374;0.096;2024-01-27T17:44:51;6.30;99.90
63960;DHT22;50136;51.374;0.096;2024-01-27T17:54:54;6.00;99.90
63960;DHT22;50136;51.374;0.096;2024-01-27T18:04:57;5.80;99.90
63960;DHT22;50136;51.374;0.096;2024-01-27T18:15:00;5.70;99.90
63960;DHT22;50136;51.374;0.096;2024-01-27T18:25:03;5.50;99.90
63960;DHT22;50136;51.374;0.096;2024-01-27T18:35:07;5.40;99.90
63960;DHT22;50136;51.374;0.096;2024-01-27T18:45:09;5.50;99.90
63960;DHT22;50136;51.374;0.096;2024-01-27T18:55:13;5.60;99.90
63960;DHT22;50136;51.374;0.096;2024-01-27T19:05:15;5.70;99.90
63960;DHT22;50136;51.374;0.096;2024-01-27T19:15:20;5.60;99.90
63960;DHT22;50136;51.374;0.096;2024-01-27T19:25:22;5.50;99.90
63960;DHT22;50136;51.374;0.096;2024-01-27T19:35:25;5.40;99.90
63960;DHT22;50136;51.374;0.096;2024-01-27T19:45:27;5.30;99.90
63960;DHT22;50136;51.374;0.096;2024-01-27T19:55:31;5.20;99.90
63960;DHT22;50136;51.374;0.096;2024-01-27T20:05:33;5.20;99.90
63960;DHT22;50136;51.374;0.096;2024-01-27T20:15:36;5.20;99.90
63960;DHT22;50136;51.374;0.096;2024-01-27T20:25:38;5.20;99.90
63960;DHT22;50136;51.374;0.096;2024-01-27T20:35:42;5.20;99.90
63960;DHT22;50136;51.374;0.096;2024-01-27T20:45:44;5.30;99.90
63960;DHT22;50136;51.374;0.096;2024-01-27T20:55:47;5.30;99.90
63960;DHT22;50136;51.374;0.096;2024-01-27T21:05:49;5.40;99.90
63960;DHT22;50136;51.374;0.096;2024-01-27T21:15:54;5.30;99.90
63960;DHT22;50136;51.374;0.096;2024-01-27T21:25:56;5.40;99.90
63960;DHT22;50136;51.374;0.096;2024-01-27T21:36:02;5.50;99.90
63960;DHT22;50136;51.374;0.096;2024-01-27T21:46:05;5.60;99.90
63960;DHT22;50136;51.374;0.096;2024-01-27T21:56:11;5.60;99.90
63960;DHT22;50136;51.374;0.096;2024-01-27T22:06:13;5.60;99.90
63960;DHT22;50136;51.374;0.096;2024-01-27T22:16:17;5.60;99.90
63960;DHT22;50136;51.374;0.096;2024-01-27T22:26:19;5.70;99.90
63960;DHT22;50136;51.374;0.096;2024-01-27T22:36:22;5.70;99.90
63960;DHT22;50136;51.374;0.096;2024-01-27T22:46:24;5.60;99.90
63960;DHT22;50136;51.374;0.096;2024-01-27T22:56:28;5.60;99.90
63960;DHT22;50136;51.374;0.096;2024-01-27T23:06:30;5.60;99.90
63960;DHT22;50136;51.374;0.096;2024-01-27T23:16:34;5.60;99.90
63960;DHT22;50136;51.374;0.096;2024-01-27T23:26:36;5.50;99.90
63960;DHT22;50136;51.374;0.096;2024-01-27T23:36:40;5.50;99.90
63960;DHT22;50136;51.374;0.096;2024-01-27T23:46:43;5.50;99.90
63960;DHT22;50136;51.374;0.096;2024-01-27T23:56:46;5.40;99.90
